sensor_id;sensor_type;location;lat;lon;timestamp;temperature;humidity
25154;DHT22;47555;51.038;6.280;2022-11-25T00:00:46;9.30;99.90
25154;DHT22;47555;51.038;6.280;2022-11-25T00:03:11;9.20;99.90
25154;DHT22;47555;51.038;6.280;2022-11-25T00:05:37;9.30;99.90
25154;DHT22;47555;51.038;6.280;2022-11-25T00:08:02;9.30;99.90
25154;DHT22;47555;51.038;6.280;2022-11-25T00:10:28;9.30;99.90
25154;DHT22;47555;51.038;6.280;2022-11-25T00:12:53;9.30;99.90
25154;DHT22;47555;51.038;6.280;2022-11-25T00:15:19;9.40;99.90
25154;DHT22;47555;51.038;6.280;2022-11-25T00:17:45;9.30;99.90
25154;DHT22;47555;51.038;6.280;2022-11-25T00:20:10;9.40;99.90
25154;DHT22;47555;51.038;6.280;2022-11-25T00:22:36;9.40;99.90
25154;DHT22;47555;51.038;6.280;2022-11-25T00:25:01;9.50;99.90
25154;DHT22;47555;51.038;6.280;2022-11-25T00:27:27;9.60;99.90
25154;DHT22;47555;51.038;6.280;2022-11-25T00:29:53;9.50;99.90
25154;DHT22;47555;51.038;6.280;2022-11-25T00:32:18;9.50;99.90
25154;DHT22;47555;51.038;6.280;2022-11-25T00:34:44;9.60;99.90
25154;DHT22;47555;51.038;6.280;2022-11-25T00:37:09;9.60;99.90
25154;DHT22;47555;51.038;6.280;2022-11-25T00:39:35;9.60;99.90
25154;DHT22;47555;51.038;6.280;2022-11-25T00:42:00;9.60;99.90
25154;DHT22;47555;51.038;6.280;2022-11-25T00:44:44;9.60;99.90
25154;DHT22;47555;51.038;6.280;2022-11-25T00:47:15;9.60;99.90
25154;DHT22;47555;51.038;6.280;2022-11-25T00:49:49;9.60;99.90
25154;DHT22;47555;51.038;6.280;2022-11-25T00:52:17;9.60;99.90
25154;DHT22;47555;51.038;6.280;2022-11-25T00:54:44;9.60;99.90
25154;DHT22;47555;51.038;6.280;2022-11-25T00:57:11;9.60;99.90
25154;DHT22;47555;51.038;6.280;2022-11-25T00:59:36;9.60;99.90
25154;DHT22;47555;51.038;6.280;2022-11-25T01:02:02;9.60;99.90
25154;DHT22;47555;51.038;6.280;2022-11-25T01:04:28;9.60;99.90
25154;DHT22;47555;51.038;6.280;2022-11-25T01:06:53;9.60;99.90
25154;DHT22;47555;51.038;6.280;2022-11-25T01:09:21;9.60;99.90
25154;DHT22;47555;51.038;6.280;2022-11-25T01:11:49;9.70;99.90
25154;DHT22;47555;51.038;6.280;2022-11-25T01:14:15;9.60;99.90
25154;DHT22;47555;51.038;6.280;2022-11-25T01:16:40;9.60;99.90
25154;DHT22;47555;51.038;6.280;2022-11-25T01:19:06;9.60;99.90
25154;DHT22;47555;51.038;6.280;2022-11-25T01:21:32;9.50;99.90
25154;DHT22;47555;51.038;6.280;2022-11-25T01:23:59;9.50;99.90
25154;DHT22;47555;51.038;6.280;2022-11-25T01:26:26;9.40;99.90
25154;DHT22;47555;51.038;6.280;2022-11-25T01:28:54;9.40;99.90
25154;DHT22;47555;51.038;6.280;2022-11-25T01:31:21;9.30;99.90
25154;DHT22;47555;51.038;6.280;2022-11-25T01:33:52;9.30;99.90
25154;DHT22;47555;51.038;6.280;2022-11-25T01:36:17;9.30;99.90
25154;DHT22;47555;51.038;6.280;2022-11-25T01:38:44;9.20;99.90
25154;DHT22;47555;51.038;6.280;2022-11-25T01:41:12;9.20;99.90
25154;DHT22;47555;51.038;6.280;2022-11-25T01:43:39;9.20;99.90
25154;DHT22;47555;51.038;6.280;2022-11-25T01:46:26;9.20;99.90
25154;DHT22;47555;51.038;6.280;2022-11-25T01:48:56;9.20;99.90
25154;DHT22;47555;51.038;6.280;2022-11-25T01:51:32;9.20;99.90
25154;DHT22;47555;51.038;6.280;2022-11-25T01:54:01;9.20;99.90
25154;DHT22;47555;51.038;6.280;2022-11-25T01:56:30;9.20;99.90
25154;DHT22;47555;51.038;6.280;2022-11-25T01:58:57;9.30;99.90
25154;DHT22;47555;51.038;6.280;2022-11-25T02:01:23;9.40;99.90
25154;DHT22;47555;51.038;6.280;2022-11-25T02:03:51;9.50;99.90
25154;DHT22;47555;51.038;6.280;2022-11-25T02:06:28;9.60;99.90
25154;DHT22;47555;51.038;6.280;2022-11-25T02:09:04;9.80;99.90
25154;DHT22;47555;51.038;6.280;2022-11-25T02:11:30;9.90;99.90
25154;DHT22;47555;51.038;6.280;2022-11-25T02:13:57;9.90;99.90
25154;DHT22;47555;51.038;6.280;2022-11-25T02:16:24;10.00;99.90
25154;DHT22;47555;51.038;6.280;2022-11-25T02:18:49;10.10;99.90
25154;DHT22;47555;51.038;6.280;2022-11-25T02:21:24;10.10;99.90
25154;DHT22;47555;51.038;6.280;2022-11-25T02:23:55;10.20;99.90
25154;DHT22;47555;51.038;6.280;2022-11-25T02:26:23;10.30;99.90
25154;DHT22;47555;51.038;6.280;2022-11-25T02:28:49;10.30;99.90
25154;DHT22;47555;51.038;6.280;2022-11-25T02:31:20;10.30;99.90
25154;DHT22;47555;51.038;6.280;2022-11-25T02:33:46;10.30;99.90
25154;DHT22;47555;51.038;6.280;2022-11-25T02:36:14;10.30;99.90
25154;DHT22;47555;51.038;6.280;2022-11-25T02:38:49;10.30;99.90
25154;DHT22;47555;51.038;6.280;2022-11-25T02:41:20;10.30;99.90
25154;DHT22;47555;51.038;6.280;2022-11-25T02:43:47;10.30;99.90
25154;DHT22;47555;51.038;6.280;2022-11-25T02:46:15;10.20;99.90
25154;DHT22;47555;51.038;6.280;2022-11-25T02:48:41;10.20;99.90
25154;DHT22;47555;51.038;6.280;2022-11-25T02:51:11;10.20;99.90
25154;DHT22;47555;51.038;6.280;2022-11-25T02:53:37;10.20;99.90
25154;DHT22;47555;51.038;6.280;2022-11-25T02:56:02;10.20;99.90
25154;DHT22;47555;51.038;6.280;2022-11-25T02:58:28;10.20;99.90
25154;DHT22;47555;51.038;6.280;2022-11-25T03:00:54;10.20;99.90
25154;DHT22;47555;51.038;6.280;2022-11-25T03:03:20;10.20;99.90
25154;DHT22;47555;51.038;6.280;2022-11-25T03:05:46;10.20;99.90
25154;DHT22;47555;51.038;6.280;2022-11-25T03:08:11;10.20;99.90
25154;DHT22;47555;51.038;6.280;2022-11-25T03:10:37;10.20;99.90
25154;DHT22;47555;51.038;6.280;2022-11-25T03:13:04;10.20;99.90
25154;DHT22;47555;51.038;6.280;2022-11-25T03:15:30;10.20;99.90
25154;DHT22;47555;51.038;6.280;2022-11-25T03:17:56;10.10;99.90
25154;DHT22;47555;51.038;6.280;2022-11-25T03:20:22;10.10;99.90
25154;DHT22;47555;51.038;6.280;2022-11-25T03:22:48;10.10;99.90
25154;DHT22;47555;51.038;6.280;2022-11-25T03:25:14;10.10;99.90
25154;DHT22;47555;51.038;6.280;2022-11-25T03:27:41;10.10;99.90
25154;DHT22;47555;51.038;6.280;2022-11-25T03:30:12;10.10;99.90
25154;DHT22;47555;51.038;6.280;2022-11-25T03:32:38;10.10;99.90
25154;DHT22;47555;51.038;6.280;2022-11-25T03:35:07;10.10;99.90
25154;DHT22;47555;51.038;6.280;2022-11-25T03:37:32;10.10;99.90
25154;DHT22;47555;51.038;6.280;2022-11-25T03:39:58;10.00;99.90
25154;DHT22;47555;51.038;6.280;2022-11-25T03:42:23;10.00;99.90
25154;DHT22;47555;51.038;6.280;2022-11-25T03:44:49;10.00;99.90
25154;DHT22;47555;51.038;6.280;2022-11-25T03:47:14;9.90;99.90
25154;DHT22;47555;51.038;6.280;2022-11-25T03:49:40;9.90;99.90
25154;DHT22;47555;51.038;6.280;2022-11-25T03:52:06;9.90;99.90
25154;DHT22;47555;51.038;6.280;2022-11-25T03:54:31;9.90;99.90
25154;DHT22;47555;51.038;6.280;2022-11-25T03:56:57;9.90;99.90
25154;DHT22;47555;51.038;6.280;2022-11-25T03:59:22;9.90;99.90
25154;DHT22;47555;51.038;6.280;2022-11-25T04:01:50;9.90;99.90
25154;DHT22;47555;51.038;6.280;2022-11-25T04:04:16;9.90;99.90
25154;DHT22;47555;51.038;6.280;2022-11-25T04:06:42;9.80;99.90
25154;DHT22;47555;51.038;6.280;2022-11-25T04:09:08;9.80;99.90
25154;DHT22;47555;51.038;6.280;2022-11-25T04:11:34;9.80;99.90
25154;DHT22;47555;51.038;6.280;2022-11-25T04:14:18;9.80;99.90
25154;DHT22;47555;51.038;6.280;2022-11-25T04:16:44;9.80;99.90
25154;DHT22;47555;51.038;6.280;2022-11-25T04:19:09;9.80;99.90
25154;DHT22;47555;51.038;6.280;2022-11-25T04:21:37;9.70;99.90
25154;DHT22;47555;51.038;6.280;2022-11-25T04:24:02;9.70;99.90
25154;DHT22;47555;51.038;6.280;2022-11-25T04:26:28;9.70;99.90
25154;DHT22;47555;51.038;6.280;2022-11-25T04:28:53;9.70;99.90
25154;DHT22;47555;51.038;6.280;2022-11-25T04:31:19;9.60;99.90
25154;DHT22;47555;51.038;6.280;2022-11-25T04:33:44;9.60;99.90
25154;DHT22;47555;51.038;6.280;2022-11-25T04:36:10;9.60;99.90
25154;DHT22;47555;51.038;6.280;2022-11-25T04:38:35;9.60;99.90
25154;DHT22;47555;51.038;6.280;2022-11-25T04:41:01;9.60;99.90
25154;DHT22;47555;51.038;6.280;2022-11-25T04:43:26;9.60;99.90
25154;DHT22;47555;51.038;6.280;2022-11-25T04:45:52;9.60;99.90
25154;DHT22;47555;51.038;6.280;2022-11-25T04:48:18;9.50;99.90
25154;DHT22;47555;51.038;6.280;2022-11-25T04:50:44;9.50;99.90
25154;DHT22;47555;51.038;6.280;2022-11-25T04:53:09;9.50;99.90
25154;DHT22;47555;51.038;6.280;2022-11-25T04:55:35;9.50;99.90
25154;DHT22;47555;51.038;6.280;2022-11-25T04:58:01;9.50;99.90
25154;DHT22;47555;51.038;6.280;2022-11-25T05:00:29;9.40;99.90
25154;DHT22;47555;51.038;6.280;2022-11-25T05:02:54;9.40;99.90
25154;DHT22;47555;51.038;6.280;2022-11-25T05:05:20;9.40;99.90
25154;DHT22;47555;51.038;6.280;2022-11-25T05:07:46;9.40;99.90
25154;DHT22;47555;51.038;6.280;2022-11-25T05:10:11;9.40;99.90
25154;DHT22;47555;51.038;6.280;2022-11-25T05:12:37;9.40;99.90
25154;DHT22;47555;51.038;6.280;2022-11-25T05:15:04;9.40;99.90
25154;DHT22;47555;51.038;6.280;2022-11-25T05:17:31;9.30;99.90
25154;DHT22;47555;51.038;6.280;2022-11-25T05:19:57;9.40;99.90
25154;DHT22;47555;51.038;6.280;2022-11-25T05:22:25;9.30;99.90
25154;DHT22;47555;51.038;6.280;2022-11-25T05:24:51;9.30;99.90
25154;DHT22;47555;51.038;6.280;2022-11-25T05:27:17;9.30;99.90
25154;DHT22;47555;51.038;6.280;2022-11-25T05:29:43;9.30;99.90
25154;DHT22;47555;51.038;6.280;2022-11-25T05:32:09;9.30;99.90
25154;DHT22;47555;51.038;6.280;2022-11-25T05:34:35;9.30;99.90
25154;DHT22;47555;51.038;6.280;2022-11-25T05:37:03;9.20;99.90
25154;DHT22;47555;51.038;6.280;2022-11-25T05:39:29;9.20;99.90
25154;DHT22;47555;51.038;6.280;2022-11-25T05:41:55;9.20;99.90
25154;DHT22;47555;51.038;6.280;2022-11-25T05:44:20;9.20;99.90
25154;DHT22;47555;51.038;6.280;2022-11-25T05:46:46;9.20;99.90
25154;DHT22;47555;51.038;6.280;2022-11-25T05:49:13;9.10;99.90
25154;DHT22;47555;51.038;6.280;2022-11-25T05:51:39;9.10;99.90
25154;DHT22;47555;51.038;6.280;2022-11-25T05:54:05;9.00;99.90
25154;DHT22;47555;51.038;6.280;2022-11-25T05:56:30;9.00;99.90
25154;DHT22;47555;51.038;6.280;2022-11-25T05:58:58;9.00;99.90
25154;DHT22;47555;51.038;6.280;2022-11-25T06:01:23;9.00;99.90
25154;DHT22;47555;51.038;6.280;2022-11-25T06:03:49;8.90;99.90
25154;DHT22;47555;51.038;6.280;2022-11-25T06:06:17;8.90;99.90
25154;DHT22;47555;51.038;6.280;2022-11-25T06:08:43;8.90;99.90
25154;DHT22;47555;51.038;6.280;2022-11-25T06:11:12;8.90;99.90
25154;DHT22;47555;51.038;6.280;2022-11-25T06:13:39;8.80;99.90
25154;DHT22;47555;51.038;6.280;2022-11-25T06:16:18;8.80;99.90
25154;DHT22;47555;51.038;6.280;2022-11-25T06:18:44;8.70;99.90
25154;DHT22;47555;51.038;6.280;2022-11-25T06:21:10;8.70;99.90
25154;DHT22;47555;51.038;6.280;2022-11-25T06:23:37;8.60;99.90
25154;DHT22;47555;51.038;6.280;2022-11-25T06:26:16;8.60;99.90
25154;DHT22;47555;51.038;6.280;2022-11-25T06:28:42;8.50;99.90
25154;DHT22;47555;51.038;6.280;2022-11-25T06:31:13;8.50;99.90
25154;DHT22;47555;51.038;6.280;2022-11-25T06:33:39;8.50;99.90
25154;DHT22;47555;51.038;6.280;2022-11-25T06:36:07;8.40;99.90
25154;DHT22;47555;51.038;6.280;2022-11-25T06:38:37;8.40;99.90
25154;DHT22;47555;51.038;6.280;2022-11-25T06:41:04;8.40;99.90
25154;DHT22;47555;51.038;6.280;2022-11-25T06:43:30;8.40;99.90
25154;DHT22;47555;51.038;6.280;2022-11-25T06:46:09;8.30;99.90
25154;DHT22;47555;51.038;6.280;2022-11-25T06:48:35;8.30;99.90
25154;DHT22;47555;51.038;6.280;2022-11-25T06:51:04;8.30;99.90
25154;DHT22;47555;51.038;6.280;2022-11-25T06:53:31;8.20;99.90
25154;DHT22;47555;51.038;6.280;2022-11-25T06:58:36;8.20;99.90
25154;DHT22;47555;51.038;6.280;2022-11-25T07:01:09;8.20;99.90
25154;DHT22;47555;51.038;6.280;2022-11-25T07:03:38;8.20;99.90
25154;DHT22;47555;51.038;6.280;2022-11-25T07:06:04;8.10;99.90
25154;DHT22;47555;51.038;6.280;2022-11-25T07:08:30;8.10;99.90
25154;DHT22;47555;51.038;6.280;2022-11-25T07:11:02;8.10;99.90
25154;DHT22;47555;51.038;6.280;2022-11-25T07:13:27;8.00;99.90
25154;DHT22;47555;51.038;6.280;2022-11-25T07:15:53;8.10;99.90
25154;DHT22;47555;51.038;6.280;2022-11-25T07:18:18;8.00;99.90
25154;DHT22;47555;51.038;6.280;2022-11-25T07:20:44;8.00;99.90
25154;DHT22;47555;51.038;6.280;2022-11-25T07:23:10;8.00;99.90
25154;DHT22;47555;51.038;6.280;2022-11-25T07:25:36;8.00;99.90
25154;DHT22;47555;51.038;6.280;2022-11-25T07:28:02;7.90;99.90
25154;DHT22;47555;51.038;6.280;2022-11-25T07:30:27;7.90;99.90
25154;DHT22;47555;51.038;6.280;2022-11-25T07:32:53;8.00;99.90
25154;DHT22;47555;51.038;6.280;2022-11-25T07:35:19;8.00;99.90
25154;DHT22;47555;51.038;6.280;2022-11-25T07:37:44;8.00;99.90
25154;DHT22;47555;51.038;6.280;2022-11-25T07:40:10;8.00;99.90
25154;DHT22;47555;51.038;6.280;2022-11-25T07:42:36;8.00;99.90
25154;DHT22;47555;51.038;6.280;2022-11-25T07:45:02;7.90;99.90
25154;DHT22;47555;51.038;6.280;2022-11-25T07:47:27;8.00;99.90
25154;DHT22;47555;51.038;6.280;2022-11-25T07:49:53;8.00;99.90
25154;DHT22;47555;51.038;6.280;2022-11-25T07:52:18;8.00;99.90
25154;DHT22;47555;51.038;6.280;2022-11-25T07:54:44;8.00;99.90
25154;DHT22;47555;51.038;6.280;2022-11-25T07:57:10;8.20;99.90
25154;DHT22;47555;51.038;6.280;2022-11-25T07:59:36;8.20;99.90
25154;DHT22;47555;51.038;6.280;2022-11-25T08:02:05;8.40;99.90
25154;DHT22;47555;51.038;6.280;2022-11-25T08:04:31;8.50;99.90
25154;DHT22;47555;51.038;6.280;2022-11-25T08:06:56;8.60;99.90
25154;DHT22;47555;51.038;6.280;2022-11-25T08:09:22;8.70;99.90
25154;DHT22;47555;51.038;6.280;2022-11-25T08:11:48;8.80;99.90
25154;DHT22;47555;51.038;6.280;2022-11-25T08:14:15;8.90;99.90
25154;DHT22;47555;51.038;6.280;2022-11-25T08:16:40;9.10;99.90
25154;DHT22;47555;51.038;6.280;2022-11-25T08:19:08;9.20;99.90
25154;DHT22;47555;51.038;6.280;2022-11-25T08:21:36;9.20;99.90
25154;DHT22;47555;51.038;6.280;2022-11-25T08:24:02;9.30;99.90
25154;DHT22;47555;51.038;6.280;2022-11-25T08:26:30;9.50;99.90
25154;DHT22;47555;51.038;6.280;2022-11-25T08:28:56;9.60;99.90
25154;DHT22;47555;51.038;6.280;2022-11-25T08:31:28;9.70;99.90
25154;DHT22;47555;51.038;6.280;2022-11-25T08:33:54;9.90;99.90
25154;DHT22;47555;51.038;6.280;2022-11-25T08:36:20;10.00;99.90
25154;DHT22;47555;51.038;6.280;2022-11-25T08:38:48;10.10;99.90
25154;DHT22;47555;51.038;6.280;2022-11-25T08:41:18;10.20;99.90
25154;DHT22;47555;51.038;6.280;2022-11-25T08:43:43;10.30;99.90
25154;DHT22;47555;51.038;6.280;2022-11-25T08:46:12;10.40;99.90
25154;DHT22;47555;51.038;6.280;2022-11-25T08:48:38;10.60;99.90
25154;DHT22;47555;51.038;6.280;2022-11-25T08:51:09;10.80;99.90
25154;DHT22;47555;51.038;6.280;2022-11-25T08:53:36;11.00;99.90
25154;DHT22;47555;51.038;6.280;2022-11-25T08:56:02;11.20;99.90
25154;DHT22;47555;51.038;6.280;2022-11-25T08:58:28;11.40;99.90
25154;DHT22;47555;51.038;6.280;2022-11-25T09:00:53;11.50;99.90
25154;DHT22;47555;51.038;6.280;2022-11-25T09:03:19;11.60;99.90
25154;DHT22;47555;51.038;6.280;2022-11-25T09:05:45;11.70;99.90
25154;DHT22;47555;51.038;6.280;2022-11-25T09:08:11;11.80;99.90
25154;DHT22;47555;51.038;6.280;2022-11-25T09:10:38;11.90;99.90
25154;DHT22;47555;51.038;6.280;2022-11-25T09:13:06;12.00;99.90
25154;DHT22;47555;51.038;6.280;2022-11-25T09:15:34;12.20;99.90
25154;DHT22;47555;51.038;6.280;2022-11-25T09:18:02;12.40;99.90
25154;DHT22;47555;51.038;6.280;2022-11-25T09:20:28;12.50;99.90
25154;DHT22;47555;51.038;6.280;2022-11-25T09:22:58;12.70;99.90
25154;DHT22;47555;51.038;6.280;2022-11-25T09:25:23;12.90;99.90
25154;DHT22;47555;51.038;6.280;2022-11-25T09:27:49;13.00;99.90
25154;DHT22;47555;51.038;6.280;2022-11-25T09:30:15;13.20;99.90
25154;DHT22;47555;51.038;6.280;2022-11-25T09:32:42;13.30;96.60
25154;DHT22;47555;51.038;6.280;2022-11-25T09:35:08;13.30;96.70
25154;DHT22;47555;51.038;6.280;2022-11-25T09:37:33;13.40;96.60
25154;DHT22;47555;51.038;6.280;2022-11-25T09:39:59;13.60;97.70
25154;DHT22;47555;51.038;6.280;2022-11-25T09:45:28;14.00;94.90
25154;DHT22;47555;51.038;6.280;2022-11-25T09:51:22;14.00;91.00
25154;DHT22;47555;51.038;6.280;2022-11-25T09:54:10;13.60;93.60
25154;DHT22;47555;51.038;6.280;2022-11-25T09:56:48;13.20;95.60
25154;DHT22;47555;51.038;6.280;2022-11-25T09:59:22;12.80;97.70
25154;DHT22;47555;51.038;6.280;2022-11-25T10:01:53;12.50;98.30
25154;DHT22;47555;51.038;6.280;2022-11-25T10:04:29;12.30;99.90
25154;DHT22;47555;51.038;6.280;2022-11-25T10:06:58;12.10;99.90
25154;DHT22;47555;51.038;6.280;2022-11-25T10:09:29;12.10;99.90
25154;DHT22;47555;51.038;6.280;2022-11-25T10:12:12;12.20;99.90
25154;DHT22;47555;51.038;6.280;2022-11-25T10:14:49;12.30;99.90
25154;DHT22;47555;51.038;6.280;2022-11-25T10:20:20;12.30;99.90
25154;DHT22;47555;51.038;6.280;2022-11-25T10:22:49;12.40;99.90
25154;DHT22;47555;51.038;6.280;2022-11-25T10:25:20;12.30;99.90
25154;DHT22;47555;51.038;6.280;2022-11-25T10:28:17;12.30;99.90
25154;DHT22;47555;51.038;6.280;2022-11-25T10:30:43;12.30;99.90
25154;DHT22;47555;51.038;6.280;2022-11-25T10:33:20;12.10;99.90
25154;DHT22;47555;51.038;6.280;2022-11-25T10:35:53;12.00;99.90
25154;DHT22;47555;51.038;6.280;2022-11-25T10:38:28;11.90;99.90
25154;DHT22;47555;51.038;6.280;2022-11-25T10:40:55;11.90;99.90
25154;DHT22;47555;51.038;6.280;2022-11-25T10:43:20;11.90;99.90
25154;DHT22;47555;51.038;6.280;2022-11-25T10:45:56;11.90;99.90
25154;DHT22;47555;51.038;6.280;2022-11-25T10:51:36;11.80;99.90
25154;DHT22;47555;51.038;6.280;2022-11-25T10:54:12;11.70;99.90
25154;DHT22;47555;51.038;6.280;2022-11-25T10:56:43;11.70;99.90
25154;DHT22;47555;51.038;6.280;2022-11-25T10:59:24;11.70;99.90
25154;DHT22;47555;51.038;6.280;2022-11-25T11:07:20;11.80;99.90
25154;DHT22;47555;51.038;6.280;2022-11-25T11:09:46;11.90;99.90
25154;DHT22;47555;51.038;6.280;2022-11-25T11:14:39;12.10;99.90
25154;DHT22;47555;51.038;6.280;2022-11-25T11:17:04;12.10;99.90
25154;DHT22;47555;51.038;6.280;2022-11-25T11:19:30;12.20;99.90
25154;DHT22;47555;51.038;6.280;2022-11-25T11:21:57;12.20;99.90
25154;DHT22;47555;51.038;6.280;2022-11-25T11:24:38;12.10;99.90
25154;DHT22;47555;51.038;6.280;2022-11-25T11:29:41;12.10;99.90
25154;DHT22;47555;51.038;6.280;2022-11-25T11:32:12;12.10;99.90
25154;DHT22;47555;51.038;6.280;2022-11-25T11:35:02;12.10;99.90
25154;DHT22;47555;51.038;6.280;2022-11-25T11:37:40;12.20;99.90
25154;DHT22;47555;51.038;6.280;2022-11-25T11:48:45;12.20;99.90
25154;DHT22;47555;51.038;6.280;2022-11-25T11:51:32;12.10;99.90
25154;DHT22;47555;51.038;6.280;2022-11-25T11:54:05;12.20;99.90
25154;DHT22;47555;51.038;6.280;2022-11-25T11:59:37;12.20;99.90
25154;DHT22;47555;51.038;6.280;2022-11-25T12:02:27;12.20;99.90
25154;DHT22;47555;51.038;6.280;2022-11-25T12:08:17;12.30;99.90
25154;DHT22;47555;51.038;6.280;2022-11-25T12:10:52;12.40;99.80
25154;DHT22;47555;51.038;6.280;2022-11-25T12:16:03;12.50;99.90
25154;DHT22;47555;51.038;6.280;2022-11-25T12:21:59;12.50;98.00
25154;DHT22;47555;51.038;6.280;2022-11-25T12:26:59;12.40;96.40
25154;DHT22;47555;51.038;6.280;2022-11-25T12:29:37;12.20;96.60
25154;DHT22;47555;51.038;6.280;2022-11-25T12:32:50;12.10;97.20
25154;DHT22;47555;51.038;6.280;2022-11-25T12:35:30;12.00;98.90
25154;DHT22;47555;51.038;6.280;2022-11-25T12:41:09;11.90;99.90
25154;DHT22;47555;51.038;6.280;2022-11-25T12:49:05;11.90;99.90
25154;DHT22;47555;51.038;6.280;2022-11-25T13:00:27;12.00;97.70
25154;DHT22;47555;51.038;6.280;2022-11-25T13:08:40;12.10;98.90
25154;DHT22;47555;51.038;6.280;2022-11-25T13:16:30;12.20;97.40
25154;DHT22;47555;51.038;6.280;2022-11-25T13:18:56;12.20;97.30
25154;DHT22;47555;51.038;6.280;2022-11-25T13:21:22;12.20;96.90
25154;DHT22;47555;51.038;6.280;2022-11-25T13:23:56;12.20;97.60
25154;DHT22;47555;51.038;6.280;2022-11-25T13:26:36;12.20;96.80
25154;DHT22;47555;51.038;6.280;2022-11-25T13:31:58;12.20;98.50
25154;DHT22;47555;51.038;6.280;2022-11-25T13:34:29;12.30;98.10
25154;DHT22;47555;51.038;6.280;2022-11-25T13:36:58;12.30;98.10
25154;DHT22;47555;51.038;6.280;2022-11-25T13:39:35;12.30;97.40
25154;DHT22;47555;51.038;6.280;2022-11-25T13:42:25;12.30;98.10
25154;DHT22;47555;51.038;6.280;2022-11-25T13:44:58;12.30;98.00
25154;DHT22;47555;51.038;6.280;2022-11-25T13:50:19;12.30;97.60
25154;DHT22;47555;51.038;6.280;2022-11-25T13:53:02;12.30;97.80
25154;DHT22;47555;51.038;6.280;2022-11-25T13:55:35;12.20;98.70
25154;DHT22;47555;51.038;6.280;2022-11-25T14:00:41;12.20;96.80
25154;DHT22;47555;51.038;6.280;2022-11-25T14:14:03;12.00;98.70
25154;DHT22;47555;51.038;6.280;2022-11-25T14:22:01;11.80;99.90
25154;DHT22;47555;51.038;6.280;2022-11-25T14:24:47;11.70;99.90
25154;DHT22;47555;51.038;6.280;2022-11-25T14:27:19;11.70;99.90
25154;DHT22;47555;51.038;6.280;2022-11-25T14:30:07;11.70;99.90
25154;DHT22;47555;51.038;6.280;2022-11-25T14:32:55;11.70;99.90
25154;DHT22;47555;51.038;6.280;2022-11-25T14:35:32;11.60;99.90
25154;DHT22;47555;51.038;6.280;2022-11-25T14:38:05;11.60;99.90
25154;DHT22;47555;51.038;6.280;2022-11-25T14:40:37;11.50;99.90
25154;DHT22;47555;51.038;6.280;2022-11-25T14:43:15;11.50;99.90
25154;DHT22;47555;51.038;6.280;2022-11-25T14:45:42;11.50;99.90
25154;DHT22;47555;51.038;6.280;2022-11-25T14:48:22;11.40;99.90
25154;DHT22;47555;51.038;6.280;2022-11-25T14:51:03;11.40;99.90
25154;DHT22;47555;51.038;6.280;2022-11-25T14:53:37;11.30;99.90
25154;DHT22;47555;51.038;6.280;2022-11-25T14:56:04;11.20;99.90
25154;DHT22;47555;51.038;6.280;2022-11-25T14:58:29;11.10;99.90
25154;DHT22;47555;51.038;6.280;2022-11-25T15:01:05;11.00;99.90
25154;DHT22;47555;51.038;6.280;2022-11-25T15:03:31;11.00;99.90
25154;DHT22;47555;51.038;6.280;2022-11-25T15:06:02;10.90;99.90
25154;DHT22;47555;51.038;6.280;2022-11-25T15:08:27;10.80;99.90
25154;DHT22;47555;51.038;6.280;2022-11-25T15:11:04;10.70;99.90
25154;DHT22;47555;51.038;6.280;2022-11-25T15:13:47;10.70;99.90
25154;DHT22;47555;51.038;6.280;2022-11-25T15:16:19;10.60;99.90
25154;DHT22;47555;51.038;6.280;2022-11-25T15:18:47;10.50;99.90
25154;DHT22;47555;51.038;6.280;2022-11-25T15:21:14;10.40;99.90
25154;DHT22;47555;51.038;6.280;2022-11-25T15:23:41;10.30;99.90
25154;DHT22;47555;51.038;6.280;2022-11-25T15:26:21;10.30;99.90
25154;DHT22;47555;51.038;6.280;2022-11-25T15:28:53;10.20;99.90
25154;DHT22;47555;51.038;6.280;2022-11-25T15:31:20;10.20;99.90
25154;DHT22;47555;51.038;6.280;2022-11-25T15:33:48;10.20;99.90
25154;DHT22;47555;51.038;6.280;2022-11-25T15:36:14;10.20;99.90
25154;DHT22;47555;51.038;6.280;2022-11-25T15:38:43;10.20;99.90
25154;DHT22;47555;51.038;6.280;2022-11-25T15:49:19;10.20;99.90
25154;DHT22;47555;51.038;6.280;2022-11-25T15:51:56;10.20;99.90
25154;DHT22;47555;51.038;6.280;2022-11-25T15:54:24;10.20;99.90
25154;DHT22;47555;51.038;6.280;2022-11-25T15:56:53;10.20;99.90
25154;DHT22;47555;51.038;6.280;2022-11-25T15:59:38;10.20;99.90
25154;DHT22;47555;51.038;6.280;2022-11-25T16:02:30;10.10;99.90
25154;DHT22;47555;51.038;6.280;2022-11-25T16:10:33;10.00;99.90
25154;DHT22;47555;51.038;6.280;2022-11-25T16:18:37;9.90;99.90
25154;DHT22;47555;51.038;6.280;2022-11-25T16:21:07;9.80;99.90
25154;DHT22;47555;51.038;6.280;2022-11-25T16:23:39;9.80;99.90
25154;DHT22;47555;51.038;6.280;2022-11-25T16:28:38;9.70;99.90
25154;DHT22;47555;51.038;6.280;2022-11-25T16:31:05;9.70;99.90
25154;DHT22;47555;51.038;6.280;2022-11-25T16:33:30;9.60;99.90
25154;DHT22;47555;51.038;6.280;2022-11-25T16:35:56;9.60;99.90
25154;DHT22;47555;51.038;6.280;2022-11-25T16:38:21;9.70;99.90
25154;DHT22;47555;51.038;6.280;2022-11-25T16:40:48;9.70;99.90
25154;DHT22;47555;51.038;6.280;2022-11-25T16:43:20;9.70;99.90
25154;DHT22;47555;51.038;6.280;2022-11-25T16:45:51;9.70;99.90
25154;DHT22;47555;51.038;6.280;2022-11-25T16:48:19;9.70;99.90
25154;DHT22;47555;51.038;6.280;2022-11-25T16:50:45;9.70;99.90
25154;DHT22;47555;51.038;6.280;2022-11-25T16:53:11;9.70;99.90
25154;DHT22;47555;51.038;6.280;2022-11-25T16:55:38;9.60;99.90
25154;DHT22;47555;51.038;6.280;2022-11-25T16:58:20;9.50;99.90
25154;DHT22;47555;51.038;6.280;2022-11-25T17:00:50;9.40;99.90
25154;DHT22;47555;51.038;6.280;2022-11-25T17:03:16;9.40;99.90
25154;DHT22;47555;51.038;6.280;2022-11-25T17:05:41;9.30;99.90
25154;DHT22;47555;51.038;6.280;2022-11-25T17:08:07;9.20;99.90
25154;DHT22;47555;51.038;6.280;2022-11-25T17:10:32;9.20;99.90
25154;DHT22;47555;51.038;6.280;2022-11-25T17:12:59;9.10;99.90
25154;DHT22;47555;51.038;6.280;2022-11-25T17:15:32;9.10;99.90
25154;DHT22;47555;51.038;6.280;2022-11-25T17:18:02;9.10;99.90
25154;DHT22;47555;51.038;6.280;2022-11-25T17:20:28;9.10;99.90
25154;DHT22;47555;51.038;6.280;2022-11-25T17:22:54;9.10;99.90
25154;DHT22;47555;51.038;6.280;2022-11-25T17:25:20;9.10;99.90
25154;DHT22;47555;51.038;6.280;2022-11-25T17:27:47;9.10;99.90
25154;DHT22;47555;51.038;6.280;2022-11-25T17:30:22;9.10;99.90
25154;DHT22;47555;51.038;6.280;2022-11-25T17:32:57;9.10;99.90
25154;DHT22;47555;51.038;6.280;2022-11-25T17:35:25;9.10;99.90
25154;DHT22;47555;51.038;6.280;2022-11-25T17:37:50;9.10;99.90
25154;DHT22;47555;51.038;6.280;2022-11-25T17:40:16;9.10;99.90
25154;DHT22;47555;51.038;6.280;2022-11-25T17:42:42;9.10;99.90
25154;DHT22;47555;51.038;6.280;2022-11-25T17:45:11;9.10;99.90
25154;DHT22;47555;51.038;6.280;2022-11-25T17:47:38;9.20;99.90
25154;DHT22;47555;51.038;6.280;2022-11-25T17:50:22;9.20;99.90
25154;DHT22;47555;51.038;6.280;2022-11-25T17:52:49;9.20;99.90
25154;DHT22;47555;51.038;6.280;2022-11-25T17:55:16;9.20;99.90